createdAt,value
2022-10-01T00:01:34.919Z,100.00
2022-10-01T00:03:37.469Z,100.00
2022-10-01T00:05:39.774Z,100.00
2022-10-01T00:07:45.611Z,100.00
2022-10-01T00:09:47.795Z,100.00
2022-10-01T00:11:49.904Z,100.00
2022-10-01T00:13:53.139Z,100.00
2022-10-01T00:15:55.662Z,100.00
2022-10-01T00:17:58.290Z,100.00
2022-10-01T00:20:00.530Z,100.00
2022-10-01T00:22:02.685Z,100.00
2022-10-01T00:24:05.277Z,100.00
2022-10-01T00:26:15.631Z,100.00
2022-10-01T00:28:17.883Z,100.00
2022-10-01T00:30:20.029Z,100.00
2022-10-01T00:32:22.018Z,100.00
2022-10-01T00:34:25.084Z,100.00
2022-10-01T00:36:27.635Z,100.00
2022-10-01T00:38:30.235Z,100.00
2022-10-01T00:40:32.369Z,100.00
2022-10-01T00:42:34.647Z,100.00
2022-10-01T00:44:37.734Z,100.00
2022-10-01T00:46:43.610Z,100.00
2022-10-01T00:49:11.406Z,100.00
2022-10-01T00:51:14.100Z,100.00
2022-10-01T00:53:18.566Z,100.00
2022-10-01T00:55:27.002Z,100.00
2022-10-01T00:57:29.676Z,100.00
2022-10-01T00:59:32.153Z,100.00
2022-10-01T01:01:37.585Z,100.00
2022-10-01T01:03:40.048Z,100.00
2022-10-01T01:05:42.202Z,100.00
2022-10-01T01:07:45.973Z,100.00
2022-10-01T01:09:51.090Z,100.00
2022-10-01T01:12:14.633Z,100.00
2022-10-01T01:14:25.786Z,100.00
2022-10-01T01:16:48.227Z,100.00
2022-10-01T01:19:00.852Z,100.00
2022-10-01T01:21:30.380Z,100.00
2022-10-01T01:24:05.394Z,100.00
2022-10-01T01:26:22.797Z,100.00
2022-10-01T01:28:39.063Z,100.00
2022-10-01T01:30:41.682Z,100.00
2022-10-01T01:33:03.377Z,100.00
2022-10-01T01:35:08.746Z,100.00
2022-10-01T01:37:15.850Z,100.00
2022-10-01T01:39:20.655Z,100.00
2022-10-01T01:41:27.585Z,100.00
2022-10-01T01:43:33.499Z,100.00
2022-10-01T01:45:40.117Z,100.00
2022-10-01T01:47:43.946Z,100.00
2022-10-01T01:49:46.828Z,100.00
2022-10-01T01:51:56.266Z,100.00
2022-10-01T01:53:58.990Z,100.00
2022-10-01T01:56:02.803Z,100.00
2022-10-01T01:58:04.906Z,100.00
2022-10-01T02:00:08.908Z,100.00
2022-10-01T02:02:23.661Z,100.00
2022-10-01T02:04:36.236Z,100.00
2022-10-01T02:06:54.082Z,100.00
2022-10-01T02:09:28.730Z,100.00
2022-10-01T02:11:40.344Z,100.00
2022-10-01T02:13:50.582Z,100.00
2022-10-01T02:16:04.635Z,100.00
2022-10-01T02:18:30.362Z,100.00
2022-10-01T02:20:39.800Z,100.00
2022-10-01T02:23:03.808Z,100.00
2022-10-01T02:25:08.740Z,100.00
2022-10-01T02:27:35.815Z,100.00
2022-10-01T02:29:40.370Z,100.00
2022-10-01T02:31:42.728Z,100.00
2022-10-01T02:33:47.053Z,100.00
2022-10-01T02:35:53.107Z,100.00
2022-10-01T02:37:56.824Z,100.00
2022-10-01T02:40:01.846Z,100.00
2022-10-01T02:42:08.034Z,100.00
2022-10-01T02:44:16.037Z,100.00
2022-10-01T02:46:28.510Z,100.00
2022-10-01T02:48:30.523Z,100.00
2022-10-01T02:50:41.883Z,100.00
2022-10-01T02:52:52.960Z,100.00
2022-10-01T02:55:32.399Z,100.00
2022-10-01T02:57:34.868Z,100.00
2022-10-01T02:59:36.993Z,100.00
2022-10-01T03:01:39.585Z,100.00
2022-10-01T03:03:43.164Z,100.00
2022-10-01T03:05:45.242Z,100.00
2022-10-01T03:07:48.207Z,100.00
2022-10-01T03:09:51.165Z,100.00
2022-10-01T03:11:53.243Z,100.00
2022-10-01T03:13:55.451Z,100.00
2022-10-01T03:15:57.530Z,100.00
2022-10-01T03:17:59.537Z,100.00
2022-10-01T03:20:01.922Z,100.00
2022-10-01T03:22:05.764Z,100.00
2022-10-01T03:24:07.672Z,100.00
2022-10-01T03:26:09.867Z,100.00
2022-10-01T03:28:13.571Z,100.00
2022-10-01T03:30:15.821Z,100.00
2022-10-01T03:32:19.053Z,100.00
2022-10-01T03:34:21.798Z,100.00
2022-10-01T03:36:23.943Z,100.00
2022-10-01T03:38:26.036Z,100.00
2022-10-01T03:40:28.969Z,100.00
2022-10-01T03:42:30.990Z,100.00
2022-10-01T03:44:33.901Z,100.00
2022-10-01T03:46:36.034Z,100.00
2022-10-01T03:48:38.437Z,100.00
2022-10-01T03:50:40.614Z,100.00
2022-10-01T03:52:42.935Z,100.00
2022-10-01T03:54:45.166Z,100.00
2022-10-01T03:56:48.582Z,100.00
2022-10-01T03:58:51.108Z,100.00
2022-10-01T04:00:55.345Z,100.00
2022-10-01T04:02:58.318Z,100.00
2022-10-01T04:05:02.780Z,100.00
2022-10-01T04:07:07.919Z,100.00
2022-10-01T04:09:10.067Z,100.00
2022-10-01T04:11:12.424Z,100.00
2022-10-01T04:13:15.401Z,100.00
2022-10-01T04:15:17.589Z,100.00
2022-10-01T04:17:20.552Z,100.00
2022-10-01T04:19:22.553Z,100.00
2022-10-01T04:21:24.586Z,100.00
2022-10-01T04:23:27.067Z,100.00
2022-10-01T04:25:30.510Z,100.00
2022-10-01T04:27:32.541Z,100.00
2022-10-01T04:29:39.360Z,100.00
2022-10-01T04:31:42.446Z,100.00
2022-10-01T04:33:44.995Z,100.00
2022-10-01T04:35:47.150Z,100.00
2022-10-01T04:37:59.394Z,100.00
2022-10-01T04:40:01.865Z,100.00
2022-10-01T04:42:05.499Z,100.00
2022-10-01T04:44:07.615Z,100.00
2022-10-01T04:46:09.704Z,100.00
2022-10-01T04:48:11.930Z,100.00
2022-10-01T04:50:15.906Z,100.00
2022-10-01T04:52:21.642Z,100.00
2022-10-01T04:54:23.600Z,100.00
2022-10-01T04:56:25.631Z,100.00
2022-10-01T04:58:28.279Z,100.00
2022-10-01T05:00:30.462Z,100.00
2022-10-01T05:02:34.722Z,100.00
2022-10-01T05:04:36.904Z,100.00
2022-10-01T05:06:39.046Z,100.00
2022-10-01T05:08:41.113Z,100.00
2022-10-01T05:10:44.493Z,100.00
2022-10-01T05:12:47.936Z,100.00
2022-10-01T05:14:51.173Z,100.00
2022-10-01T05:16:53.360Z,100.00
2022-10-01T05:18:55.410Z,100.00
2022-10-01T05:20:57.599Z,100.00
2022-10-01T05:22:59.766Z,100.00
2022-10-01T05:25:02.384Z,100.00
2022-10-01T05:27:04.973Z,100.00
2022-10-01T05:29:07.121Z,100.00
2022-10-01T05:31:09.445Z,100.00
2022-10-01T05:33:11.709Z,100.00
2022-10-01T05:35:13.797Z,100.00
2022-10-01T05:37:16.131Z,100.00
2022-10-01T05:39:18.334Z,100.00
2022-10-01T05:41:20.492Z,100.00
2022-10-01T05:43:22.610Z,100.00
2022-10-01T05:45:25.512Z,100.00
2022-10-01T05:47:27.711Z,100.00
2022-10-01T05:49:29.795Z,100.00
2022-10-01T05:51:32.041Z,100.00
2022-10-01T05:53:37.788Z,100.00
2022-10-01T05:55:40.471Z,100.00
2022-10-01T05:57:42.523Z,100.00
2022-10-01T05:59:44.616Z,100.00
2022-10-01T06:01:46.750Z,100.00
2022-10-01T06:03:53.978Z,100.00
2022-10-01T06:05:56.370Z,100.00
2022-10-01T06:07:59.052Z,100.00
2022-10-01T06:10:01.161Z,100.00
2022-10-01T06:12:08.711Z,100.00
2022-10-01T06:14:10.834Z,100.00
2022-10-01T06:16:14.238Z,100.00
2022-10-01T06:18:16.477Z,100.00
2022-10-01T06:20:19.716Z,100.00
2022-10-01T06:22:22.254Z,100.00
2022-10-01T06:24:24.332Z,100.00
2022-10-01T06:26:26.566Z,100.00
2022-10-01T06:28:28.689Z,100.00
2022-10-01T06:30:32.021Z,100.00
2022-10-01T06:32:35.285Z,100.00
2022-10-01T06:34:37.488Z,100.00
2022-10-01T06:36:39.475Z,100.00
2022-10-01T06:38:43.069Z,100.00
2022-10-01T06:40:45.191Z,100.00
2022-10-01T06:42:55.999Z,100.00
2022-10-01T06:44:59.196Z,100.00
2022-10-01T06:47:01.475Z,100.00
2022-10-01T06:49:03.659Z,100.00
2022-10-01T06:51:06.298Z,100.00
2022-10-01T06:53:08.409Z,100.00
2022-10-01T06:55:15.697Z,100.00
2022-10-01T06:57:18.729Z,100.00
2022-10-01T06:59:21.375Z,100.00
2022-10-01T07:01:23.448Z,100.00
2022-10-01T07:03:26.155Z,100.00
2022-10-01T07:05:28.465Z,100.00
2022-10-01T07:07:32.348Z,100.00
2022-10-01T07:09:34.606Z,100.00
2022-10-01T07:11:41.349Z,100.00
2022-10-01T07:13:43.523Z,100.00
2022-10-01T07:15:46.176Z,100.00
2022-10-01T07:17:50.671Z,100.00
2022-10-01T07:19:52.848Z,100.00
2022-10-01T07:21:54.827Z,100.00
2022-10-01T07:23:56.929Z,100.00
2022-10-01T07:25:59.621Z,100.00
2022-10-01T07:28:06.017Z,100.00
2022-10-01T07:30:08.793Z,100.00
2022-10-01T07:32:11.027Z,100.00
2022-10-01T07:34:13.118Z,100.00
2022-10-01T07:36:15.386Z,100.00
2022-10-01T07:38:17.446Z,100.00
2022-10-01T07:40:19.874Z,100.00
2022-10-01T07:42:22.044Z,100.00
2022-10-01T07:44:24.153Z,100.00
2022-10-01T07:46:26.278Z,100.00
2022-10-01T07:48:28.682Z,100.00
2022-10-01T07:50:30.962Z,100.00
2022-10-01T07:52:33.241Z,100.00
2022-10-01T07:54:35.228Z,100.00
2022-10-01T07:56:37.870Z,100.00
2022-10-01T07:58:40.137Z,100.00
2022-10-01T08:00:43.633Z,100.00
2022-10-01T08:02:50.904Z,100.00
2022-10-01T08:05:11.789Z,100.00
2022-10-01T08:07:15.440Z,100.00
2022-10-01T08:09:17.781Z,100.00
2022-10-01T08:11:20.307Z,100.00
2022-10-01T08:13:25.106Z,99.48
2022-10-01T08:15:28.304Z,99.14
2022-10-01T08:17:30.790Z,98.33
2022-10-01T08:19:32.868Z,97.94
2022-10-01T08:21:37.885Z,96.30
2022-10-01T08:23:39.925Z,96.51
2022-10-01T08:25:42.755Z,95.54
2022-10-01T08:27:44.865Z,96.25
2022-10-01T08:29:46.958Z,94.68
2022-10-01T08:31:49.416Z,94.98
2022-10-01T08:33:52.378Z,94.21
2022-10-01T08:35:54.508Z,93.19
2022-10-01T08:38:04.887Z,93.08
2022-10-01T08:40:07.838Z,93.34
2022-10-01T08:42:34.637Z,92.84
2022-10-01T08:44:41.408Z,93.98
2022-10-01T08:46:44.010Z,94.35
2022-10-01T08:49:21.332Z,94.89
2022-10-01T08:51:39.496Z,95.61
2022-10-01T08:53:56.074Z,95.97
2022-10-01T08:56:00.494Z,96.40
2022-10-01T08:58:11.054Z,96.91
2022-10-01T09:00:18.743Z,97.52
2022-10-01T09:02:20.963Z,98.78
2022-10-01T09:04:24.078Z,100.00
2022-10-01T09:06:27.818Z,100.00
2022-10-01T09:08:43.892Z,100.00
2022-10-01T09:11:07.702Z,100.00
2022-10-01T09:13:13.531Z,100.00
2022-10-01T09:15:33.008Z,100.00
2022-10-01T09:17:47.116Z,100.00
2022-10-01T09:20:11.415Z,100.00
2022-10-01T09:22:26.306Z,100.00
2022-10-01T09:24:40.093Z,100.00
2022-10-01T09:26:48.955Z,100.00
2022-10-01T09:28:54.958Z,100.00
2022-10-01T09:31:00.810Z,100.00
2022-10-01T09:33:13.380Z,100.00
2022-10-01T09:35:35.022Z,100.00
2022-10-01T09:37:49.098Z,100.00
2022-10-01T09:40:32.487Z,100.00
2022-10-01T09:42:35.032Z,100.00
2022-10-01T09:44:37.853Z,100.00
2022-10-01T09:46:40.038Z,100.00
2022-10-01T09:48:54.451Z,100.00
2022-10-01T09:51:18.643Z,100.00
2022-10-01T09:53:26.609Z,100.00
2022-10-01T09:55:39.020Z,100.00
2022-10-01T09:57:46.387Z,100.00
2022-10-01T10:00:10.571Z,100.00
2022-10-01T10:02:36.690Z,100.00
2022-10-01T10:04:39.377Z,100.00
2022-10-01T10:06:43.952Z,100.00
2022-10-01T10:08:46.172Z,100.00
2022-10-01T10:10:54.751Z,100.00
2022-10-01T10:13:10.985Z,100.00
2022-10-01T10:15:18.822Z,100.00
2022-10-01T10:17:22.255Z,100.00
2022-10-01T10:19:27.580Z,100.00
2022-10-01T10:21:32.303Z,100.00
2022-10-01T10:23:34.776Z,100.00
2022-10-01T10:25:36.933Z,100.00
2022-10-01T10:27:38.999Z,100.00
2022-10-01T10:29:43.488Z,100.00
2022-10-01T10:31:46.592Z,100.00
2022-10-01T10:34:19.495Z,100.00
2022-10-01T10:36:29.034Z,100.00
2022-10-01T10:38:35.175Z,100.00
2022-10-01T10:40:43.042Z,100.00
2022-10-01T10:42:54.315Z,100.00
2022-10-01T10:45:03.664Z,100.00
2022-10-01T10:47:12.072Z,100.00
2022-10-01T10:49:30.212Z,100.00
2022-10-01T10:51:56.396Z,100.00
2022-10-01T10:54:01.346Z,100.00
2022-10-01T10:56:06.551Z,99.97
2022-10-01T10:58:15.198Z,100.00
2022-10-01T11:00:21.100Z,100.00
2022-10-01T11:02:25.608Z,100.00
2022-10-01T11:04:43.455Z,100.00
2022-10-01T11:06:55.789Z,99.67
2022-10-01T11:09:07.285Z,100.00
2022-10-01T11:11:37.464Z,100.00
2022-10-01T11:14:05.735Z,99.55
2022-10-01T11:16:20.423Z,98.92
2022-10-01T11:18:34.013Z,97.40
2022-10-01T11:20:52.111Z,96.98
2022-10-01T11:23:00.099Z,95.67
2022-10-01T11:25:32.578Z,92.88
2022-10-01T11:27:49.874Z,92.27
2022-10-01T11:30:23.210Z,91.98
2022-10-01T11:32:38.444Z,92.00
2022-10-01T11:34:57.248Z,92.32
2022-10-01T11:37:25.209Z,92.13
2022-10-01T11:39:30.936Z,92.33
2022-10-01T11:41:44.925Z,92.88
2022-10-01T11:43:56.660Z,93.42
2022-10-01T11:46:13.367Z,93.58
2022-10-01T11:48:35.743Z,93.55
2022-10-01T11:50:43.236Z,93.64
2022-10-01T11:52:59.223Z,93.95
2022-10-01T11:55:29.767Z,94.29
2022-10-01T11:57:50.809Z,96.31
2022-10-01T12:00:15.902Z,95.22
2022-10-01T12:02:21.174Z,95.30
2022-10-01T12:04:35.021Z,96.07
2022-10-01T12:06:53.946Z,95.99
2022-10-01T12:09:08.760Z,96.96
2022-10-01T12:11:21.003Z,97.58
2022-10-01T12:13:32.892Z,97.60
2022-10-01T12:15:55.120Z,97.21
2022-10-01T12:18:32.812Z,96.73
2022-10-01T12:20:50.871Z,96.76
2022-10-01T12:22:54.885Z,96.32
2022-10-01T12:24:57.374Z,95.91
2022-10-01T12:27:24.198Z,95.37
2022-10-01T12:29:43.167Z,94.60
2022-10-01T12:32:04.378Z,93.75
2022-10-01T12:35:00.806Z,92.92
2022-10-01T12:37:30.402Z,92.46
2022-10-01T12:40:12.287Z,91.92
2022-10-01T12:42:14.474Z,91.08
2022-10-01T12:44:31.045Z,90.45
2022-10-01T12:47:11.542Z,90.43
2022-10-01T12:49:23.621Z,90.44
2022-10-01T12:51:40.400Z,90.83
2022-10-01T12:54:13.434Z,90.21
2022-10-01T12:56:31.059Z,90.76
2022-10-01T12:59:04.166Z,89.73
2022-10-01T13:01:30.129Z,89.84
2022-10-01T13:03:37.537Z,90.73
2022-10-01T13:06:08.175Z,89.76
2022-10-01T13:08:29.055Z,90.41
2022-10-01T13:10:53.886Z,91.06
2022-10-01T13:13:18.069Z,92.07
2022-10-01T13:15:29.973Z,92.56
2022-10-01T13:17:42.719Z,93.21
2022-10-01T13:20:15.807Z,93.50
2022-10-01T13:22:21.648Z,94.43
2022-10-01T13:24:40.990Z,95.13
2022-10-01T13:26:59.978Z,96.67
2022-10-01T13:29:35.440Z,97.71
2022-10-01T13:31:57.057Z,98.85
2022-10-01T13:34:01.237Z,99.57
2022-10-01T13:36:08.368Z,100.00
2022-10-01T13:38:15.582Z,100.00
2022-10-01T13:40:30.560Z,100.00
2022-10-01T13:43:16.354Z,100.00
2022-10-01T13:45:44.267Z,100.00
2022-10-01T13:47:47.276Z,100.00
2022-10-01T13:50:23.936Z,100.00
2022-10-01T13:52:26.677Z,100.00
2022-10-01T13:54:37.709Z,100.00
2022-10-01T13:56:39.908Z,100.00
2022-10-01T13:58:44.346Z,100.00
2022-10-01T14:00:53.613Z,100.00
2022-10-01T14:03:22.557Z,100.00
2022-10-01T14:05:43.189Z,100.00
2022-10-01T14:07:47.892Z,100.00
2022-10-01T14:09:54.398Z,100.00
2022-10-01T14:12:22.707Z,100.00
2022-10-01T14:15:03.894Z,100.00
2022-10-01T14:17:08.657Z,100.00
2022-10-01T14:19:19.826Z,100.00
2022-10-01T14:21:41.582Z,100.00
2022-10-01T14:24:08.170Z,100.00
2022-10-01T14:26:33.599Z,100.00
2022-10-01T14:29:05.864Z,100.00
2022-10-01T14:31:35.879Z,100.00
2022-10-01T14:33:47.025Z,100.00
2022-10-01T14:36:23.320Z,100.00
2022-10-01T14:38:25.807Z,100.00
2022-10-01T14:40:37.244Z,100.00
2022-10-01T14:42:39.323Z,100.00
2022-10-01T14:44:44.331Z,100.00
2022-10-01T14:46:46.516Z,100.00
2022-10-01T14:48:56.497Z,100.00
2022-10-01T14:51:01.837Z,100.00
2022-10-01T14:53:06.542Z,100.00
2022-10-01T14:55:13.885Z,100.00
2022-10-01T14:57:28.445Z,100.00
2022-10-01T14:59:35.608Z,100.00
2022-10-01T15:01:37.836Z,100.00
2022-10-01T15:03:41.969Z,100.00
2022-10-01T15:05:46.843Z,100.00
2022-10-01T15:07:49.098Z,100.00
2022-10-01T15:09:51.467Z,100.00
2022-10-01T15:11:53.703Z,100.00
2022-10-01T15:14:05.296Z,100.00
2022-10-01T15:16:19.043Z,100.00
2022-10-01T15:18:22.918Z,100.00
2022-10-01T15:20:25.427Z,100.00
2022-10-01T15:22:30.244Z,100.00
2022-10-01T15:24:38.194Z,100.00
2022-10-01T15:26:40.527Z,100.00
2022-10-01T15:28:44.555Z,100.00
2022-10-01T15:30:46.920Z,100.00
2022-10-01T15:32:49.786Z,100.00
2022-10-01T15:34:58.014Z,100.00
2022-10-01T15:37:01.305Z,100.00
2022-10-01T15:39:33.972Z,100.00
2022-10-01T15:41:37.992Z,100.00
2022-10-01T15:43:42.356Z,100.00
2022-10-01T15:45:44.489Z,100.00
2022-10-01T15:47:52.293Z,100.00
2022-10-01T15:50:12.856Z,100.00
2022-10-01T15:52:35.463Z,100.00
2022-10-01T15:54:43.179Z,100.00
2022-10-01T15:56:48.725Z,100.00
2022-10-01T15:58:54.685Z,100.00
2022-10-01T16:01:09.757Z,100.00
2022-10-01T16:03:23.406Z,100.00
2022-10-01T16:05:44.918Z,100.00
2022-10-01T16:07:54.776Z,100.00
2022-10-01T16:09:59.238Z,100.00
2022-10-01T16:12:18.823Z,100.00
2022-10-01T16:14:27.922Z,100.00
2022-10-01T16:16:30.335Z,100.00
2022-10-01T16:18:34.882Z,100.00
2022-10-01T16:20:43.371Z,100.00
2022-10-01T16:22:47.952Z,100.00
2022-10-01T16:24:51.378Z,100.00
2022-10-01T16:27:00.560Z,100.00
2022-10-01T16:29:02.774Z,100.00
2022-10-01T16:31:05.034Z,100.00
2022-10-01T16:33:10.562Z,100.00
2022-10-01T16:35:18.822Z,100.00
2022-10-01T16:37:20.952Z,100.00
2022-10-01T16:39:24.622Z,100.00
2022-10-01T16:41:27.479Z,100.00
2022-10-01T16:43:31.357Z,100.00
2022-10-01T16:45:42.869Z,100.00
2022-10-01T16:47:46.793Z,100.00
2022-10-01T16:49:51.659Z,100.00
2022-10-01T16:51:55.620Z,100.00
2022-10-01T16:53:59.786Z,100.00
2022-10-01T16:56:04.638Z,100.00
2022-10-01T16:58:07.008Z,100.00
2022-10-01T17:00:10.536Z,100.00
2022-10-01T17:02:14.404Z,100.00
2022-10-01T17:04:16.752Z,100.00
2022-10-01T17:06:18.919Z,100.00
2022-10-01T17:08:24.274Z,100.00
2022-10-01T17:10:29.298Z,100.00
2022-10-01T17:12:31.839Z,100.00
2022-10-01T17:14:33.919Z,100.00
2022-10-01T17:16:36.506Z,100.00
2022-10-01T17:18:43.830Z,100.00
2022-10-01T17:20:46.532Z,100.00
2022-10-01T17:22:49.469Z,100.00
2022-10-01T17:24:53.092Z,100.00
2022-10-01T17:26:56.107Z,100.00
2022-10-01T17:28:58.588Z,100.00
2022-10-01T17:31:00.716Z,100.00
2022-10-01T17:33:03.020Z,100.00
2022-10-01T17:35:09.240Z,100.00
2022-10-01T17:37:11.810Z,100.00
2022-10-01T17:39:14.055Z,100.00
2022-10-01T17:41:16.216Z,100.00
2022-10-01T17:43:18.627Z,100.00
2022-10-01T17:45:20.856Z,100.00
2022-10-01T17:47:22.903Z,100.00
2022-10-01T17:49:25.027Z,100.00
2022-10-01T17:51:27.222Z,100.00
2022-10-01T17:53:34.188Z,100.00
2022-10-01T17:55:42.123Z,100.00
2022-10-01T17:57:44.395Z,100.00
2022-10-01T17:59:46.444Z,100.00
2022-10-01T18:01:49.029Z,100.00
2022-10-01T18:04:00.436Z,100.00
2022-10-01T18:06:03.419Z,100.00
2022-10-01T18:08:05.523Z,100.00
2022-10-01T18:10:11.999Z,100.00
2022-10-01T18:12:15.044Z,100.00
2022-10-01T18:14:17.149Z,100.00
2022-10-01T18:16:19.916Z,100.00
2022-10-01T18:20:44.183Z,100.00
2022-10-01T18:22:46.273Z,100.00
2022-10-01T18:24:48.565Z,100.00
2022-10-01T18:26:51.768Z,100.00
2022-10-01T18:29:07.875Z,100.00
2022-10-01T18:31:13.590Z,100.00
2022-10-01T18:33:15.778Z,100.00
2022-10-01T18:35:28.327Z,100.00
2022-10-01T18:37:45.728Z,100.00
2022-10-01T18:39:55.125Z,100.00
2022-10-01T18:41:58.346Z,100.00
2022-10-01T18:44:04.645Z,100.00
2022-10-01T18:46:25.562Z,100.00
2022-10-01T18:48:43.001Z,100.00
2022-10-01T18:51:05.348Z,100.00
2022-10-01T18:53:32.864Z,100.00
2022-10-01T18:55:37.997Z,100.00
2022-10-01T18:58:00.484Z,100.00
2022-10-01T19:00:27.158Z,100.00
2022-10-01T19:02:41.243Z,100.00
2022-10-01T19:04:51.597Z,100.00
2022-10-01T19:07:35.173Z,100.00
2022-10-01T19:09:43.410Z,100.00
2022-10-01T19:11:54.544Z,100.00
2022-10-01T19:13:59.357Z,100.00
2022-10-01T19:16:01.381Z,100.00
2022-10-01T19:18:29.114Z,100.00
2022-10-01T19:20:45.946Z,100.00
2022-10-01T19:22:48.278Z,100.00
2022-10-01T19:25:15.008Z,100.00
2022-10-01T19:27:35.363Z,100.00
2022-10-01T19:29:49.587Z,100.00
2022-10-01T19:31:57.810Z,100.00
2022-10-01T19:34:23.586Z,100.00
2022-10-01T19:36:34.412Z,100.00
2022-10-01T19:38:42.625Z,100.00
2022-10-01T19:40:55.922Z,100.00
2022-10-01T19:43:22.953Z,100.00
2022-10-01T19:45:43.869Z,100.00
2022-10-01T19:48:00.244Z,100.00
2022-10-01T19:50:26.808Z,100.00
2022-10-01T19:52:33.180Z,100.00
2022-10-01T19:54:42.196Z,100.00
2022-10-01T19:56:51.022Z,100.00
2022-10-01T19:58:53.930Z,100.00
2022-10-01T20:00:57.845Z,100.00
2022-10-01T20:03:19.201Z,100.00
2022-10-01T20:05:25.900Z,100.00
2022-10-01T20:07:34.676Z,100.00
2022-10-01T20:10:05.246Z,100.00
2022-10-01T20:12:29.087Z,100.00
2022-10-01T20:15:21.133Z,100.00
2022-10-01T20:17:44.982Z,100.00
2022-10-01T20:19:58.438Z,100.00
2022-10-01T20:22:07.748Z,100.00
2022-10-01T20:24:18.970Z,100.00
2022-10-01T20:26:35.810Z,100.00
2022-10-01T20:28:52.467Z,100.00
2022-10-01T20:31:05.003Z,100.00
2022-10-01T20:33:20.365Z,100.00
2022-10-01T20:35:53.635Z,100.00
2022-10-01T20:38:06.950Z,100.00
2022-10-01T20:40:25.333Z,100.00
2022-10-01T20:42:45.049Z,100.00
2022-10-01T20:44:47.746Z,100.00
2022-10-01T20:46:59.314Z,100.00
2022-10-01T20:49:06.944Z,100.00
2022-10-01T20:51:17.861Z,100.00
2022-10-01T20:53:25.236Z,100.00
2022-10-01T20:55:39.104Z,100.00
2022-10-01T20:57:50.734Z,100.00
2022-10-01T20:59:55.569Z,100.00
2022-10-01T21:02:22.461Z,100.00
2022-10-01T21:04:32.883Z,100.00
2022-10-01T21:06:41.319Z,100.00
2022-10-01T21:08:51.840Z,100.00
2022-10-01T21:10:59.808Z,100.00
2022-10-01T21:13:47.337Z,100.00
2022-10-01T21:16:14.464Z,100.00
2022-10-01T21:18:43.007Z,100.00
2022-10-01T21:20:56.780Z,100.00
2022-10-01T21:23:49.365Z,100.00
2022-10-01T21:26:03.217Z,100.00
2022-10-01T21:28:29.770Z,100.00
2022-10-01T21:30:53.723Z,100.00
2022-10-01T21:33:02.593Z,100.00
2022-10-01T21:35:21.669Z,100.00
2022-10-01T21:37:40.899Z,100.00
2022-10-01T21:40:20.495Z,100.00
2022-10-01T21:42:53.232Z,100.00
2022-10-01T21:45:22.378Z,100.00
2022-10-01T21:47:41.016Z,100.00
2022-10-01T21:50:19.190Z,100.00
2022-10-01T21:52:52.112Z,100.00
2022-10-01T21:55:07.120Z,100.00
2022-10-01T21:57:16.716Z,100.00
2022-10-01T21:59:30.788Z,100.00
2022-10-01T22:02:03.485Z,100.00
2022-10-01T22:04:20.255Z,100.00
2022-10-01T22:06:42.287Z,100.00
2022-10-01T22:09:07.903Z,100.00
2022-10-01T22:11:21.483Z,100.00
2022-10-01T22:13:28.681Z,100.00
2022-10-01T22:15:41.120Z,100.00
2022-10-01T22:17:46.399Z,100.00
2022-10-01T22:19:52.751Z,100.00
2022-10-01T22:22:30.136Z,100.00
2022-10-01T22:24:39.723Z,100.00
2022-10-01T22:26:53.982Z,100.00
2022-10-01T22:28:57.020Z,100.00
2022-10-01T22:31:01.000Z,100.00
2022-10-01T22:33:12.497Z,100.00
2022-10-01T22:35:25.459Z,100.00
2022-10-01T22:37:45.920Z,100.00
2022-10-01T22:39:57.226Z,100.00
2022-10-01T22:42:03.273Z,100.00
2022-10-01T22:44:16.447Z,100.00
2022-10-01T22:46:37.739Z,100.00
2022-10-01T22:48:52.841Z,100.00
2022-10-01T22:51:38.912Z,100.00
2022-10-01T22:53:52.568Z,100.00
2022-10-01T22:55:57.024Z,100.00
2022-10-01T22:58:32.818Z,100.00
2022-10-01T23:00:44.707Z,100.00
2022-10-01T23:03:21.274Z,100.00
2022-10-01T23:05:46.052Z,100.00
2022-10-01T23:08:10.032Z,100.00
2022-10-01T23:10:44.416Z,100.00
2022-10-01T23:13:11.421Z,100.00
2022-10-01T23:15:21.581Z,100.00
2022-10-01T23:17:45.627Z,100.00
2022-10-01T23:20:29.790Z,100.00
2022-10-01T23:22:43.888Z,100.00
2022-10-01T23:25:06.688Z,100.00
2022-10-01T23:27:25.959Z,100.00
2022-10-01T23:30:04.290Z,100.00
2022-10-01T23:32:17.482Z,100.00
2022-10-01T23:34:22.610Z,100.00
2022-10-01T23:36:53.689Z,100.00
2022-10-01T23:39:08.331Z,100.00
2022-10-01T23:41:35.397Z,100.00
2022-10-01T23:44:03.447Z,100.00
2022-10-01T23:46:14.199Z,100.00
2022-10-01T23:48:42.641Z,100.00
2022-10-01T23:50:53.675Z,100.00
2022-10-01T23:53:05.073Z,100.00
2022-10-01T23:55:42.180Z,100.00
2022-10-01T23:57:45.206Z,100.00
2022-10-01T23:59:57.740Z,100.00
